sensor_id;sensor_type;location;lat;lon;timestamp;temperature;humidity
14585;DHT22;7379;51.506;11.876;2023-02-28T00:01:23;2.70;67.60
14585;DHT22;7379;51.506;11.876;2023-02-28T00:03:50;2.70;67.60
14585;DHT22;7379;51.506;11.876;2023-02-28T00:06:17;2.70;67.60
14585;DHT22;7379;51.506;11.876;2023-02-28T00:08:44;2.70;67.60
14585;DHT22;7379;51.506;11.876;2023-02-28T00:11:13;2.70;67.60
14585;DHT22;7379;51.506;11.876;2023-02-28T00:13:42;2.70;67.60
14585;DHT22;7379;51.506;11.876;2023-02-28T00:16:14;2.70;67.60
14585;DHT22;7379;51.506;11.876;2023-02-28T00:18:41;2.70;67.60
14585;DHT22;7379;51.506;11.876;2023-02-28T00:21:09;2.70;67.60
14585;DHT22;7379;51.506;11.876;2023-02-28T00:23:36;2.70;67.60
14585;DHT22;7379;51.506;11.876;2023-02-28T00:26:03;2.70;68.30
14585;DHT22;7379;51.506;11.876;2023-02-28T00:28:32;2.70;67.60
14585;DHT22;7379;51.506;11.876;2023-02-28T00:30:59;2.70;67.60
14585;DHT22;7379;51.506;11.876;2023-02-28T00:33:26;2.70;67.60
14585;DHT22;7379;51.506;11.876;2023-02-28T00:36:01;2.70;67.60
14585;DHT22;7379;51.506;11.876;2023-02-28T00:38:29;2.70;67.60
14585;DHT22;7379;51.506;11.876;2023-02-28T00:40:56;2.70;67.60
14585;DHT22;7379;51.506;11.876;2023-02-28T00:43:24;2.70;67.60
14585;DHT22;7379;51.506;11.876;2023-02-28T00:45:52;2.70;67.50
14585;DHT22;7379;51.506;11.876;2023-02-28T00:48:19;2.70;67.60
14585;DHT22;7379;51.506;11.876;2023-02-28T00:50:48;2.70;67.60
14585;DHT22;7379;51.506;11.876;2023-02-28T00:53:15;2.70;67.60
14585;DHT22;7379;51.506;11.876;2023-02-28T00:55:42;2.70;67.60
14585;DHT22;7379;51.506;11.876;2023-02-28T00:58:09;2.70;67.60
14585;DHT22;7379;51.506;11.876;2023-02-28T01:00:36;2.70;67.60
14585;DHT22;7379;51.506;11.876;2023-02-28T01:03:04;2.70;67.50
14585;DHT22;7379;51.506;11.876;2023-02-28T01:05:31;2.70;67.50
14585;DHT22;7379;51.506;11.876;2023-02-28T01:07:58;2.70;67.50
14585;DHT22;7379;51.506;11.876;2023-02-28T01:10:25;2.60;67.40
14585;DHT22;7379;51.506;11.876;2023-02-28T01:12:52;2.60;67.40
14585;DHT22;7379;51.506;11.876;2023-02-28T01:15:19;2.60;67.40
14585;DHT22;7379;51.506;11.876;2023-02-28T01:17:45;2.60;67.60
14585;DHT22;7379;51.506;11.876;2023-02-28T01:20:14;2.60;67.40
14585;DHT22;7379;51.506;11.876;2023-02-28T01:22:41;2.60;67.50
14585;DHT22;7379;51.506;11.876;2023-02-28T01:25:08;2.60;67.50
14585;DHT22;7379;51.506;11.876;2023-02-28T01:27:35;2.60;67.40
14585;DHT22;7379;51.506;11.876;2023-02-28T01:30:02;2.60;67.40
14585;DHT22;7379;51.506;11.876;2023-02-28T01:32:29;2.60;67.50
14585;DHT22;7379;51.506;11.876;2023-02-28T01:34:56;2.60;67.50
14585;DHT22;7379;51.506;11.876;2023-02-28T01:37:24;2.60;67.50
14585;DHT22;7379;51.506;11.876;2023-02-28T01:39:51;2.60;67.50
14585;DHT22;7379;51.506;11.876;2023-02-28T01:42:18;2.60;67.50
14585;DHT22;7379;51.506;11.876;2023-02-28T01:44:58;2.60;67.50
14585;DHT22;7379;51.506;11.876;2023-02-28T01:47:28;2.60;67.50
14585;DHT22;7379;51.506;11.876;2023-02-28T01:50:11;2.60;67.50
14585;DHT22;7379;51.506;11.876;2023-02-28T01:52:39;2.60;67.50
14585;DHT22;7379;51.506;11.876;2023-02-28T01:55:07;2.60;67.50
14585;DHT22;7379;51.506;11.876;2023-02-28T01:57:37;2.60;67.50
14585;DHT22;7379;51.506;11.876;2023-02-28T02:00:08;2.60;67.50
14585;DHT22;7379;51.506;11.876;2023-02-28T02:02:36;2.60;67.50
14585;DHT22;7379;51.506;11.876;2023-02-28T02:05:08;2.60;67.50
14585;DHT22;7379;51.506;11.876;2023-02-28T02:07:37;2.60;67.50
14585;DHT22;7379;51.506;11.876;2023-02-28T02:10:06;2.50;67.40
14585;DHT22;7379;51.506;11.876;2023-02-28T02:13:00;2.50;67.40
14585;DHT22;7379;51.506;11.876;2023-02-28T02:15:33;2.50;67.40
14585;DHT22;7379;51.506;11.876;2023-02-28T02:18:05;2.50;67.40
14585;DHT22;7379;51.506;11.876;2023-02-28T02:24:09;2.50;67.40
14585;DHT22;7379;51.506;11.876;2023-02-28T02:26:55;2.50;67.40
14585;DHT22;7379;51.506;11.876;2023-02-28T02:30:02;2.50;67.40
14585;DHT22;7379;51.506;11.876;2023-02-28T02:35:43;2.50;67.50
14585;DHT22;7379;51.506;11.876;2023-02-28T02:38:18;2.50;68.20
14585;DHT22;7379;51.506;11.876;2023-02-28T02:40:58;2.50;67.50
14585;DHT22;7379;51.506;11.876;2023-02-28T02:43:29;2.50;67.40
14585;DHT22;7379;51.506;11.876;2023-02-28T02:46:04;2.50;67.50
14585;DHT22;7379;51.506;11.876;2023-02-28T02:48:34;2.50;67.50
14585;DHT22;7379;51.506;11.876;2023-02-28T02:51:07;2.50;67.50
14585;DHT22;7379;51.506;11.876;2023-02-28T02:53:42;2.50;67.60
14585;DHT22;7379;51.506;11.876;2023-02-28T02:56:12;2.50;67.50
14585;DHT22;7379;51.506;11.876;2023-02-28T02:58:42;2.50;67.50
14585;DHT22;7379;51.506;11.876;2023-02-28T03:01:12;2.50;67.50
14585;DHT22;7379;51.506;11.876;2023-02-28T03:03:40;2.50;67.50
14585;DHT22;7379;51.506;11.876;2023-02-28T03:06:08;2.50;67.50
14585;DHT22;7379;51.506;11.876;2023-02-28T03:08:37;2.50;67.50
14585;DHT22;7379;51.506;11.876;2023-02-28T03:11:05;2.50;67.50
14585;DHT22;7379;51.506;11.876;2023-02-28T03:13:58;2.50;67.50
14585;DHT22;7379;51.506;11.876;2023-02-28T03:16:33;2.50;67.50
14585;DHT22;7379;51.506;11.876;2023-02-28T03:19:17;2.50;67.50
14585;DHT22;7379;51.506;11.876;2023-02-28T03:21:59;2.50;67.50
14585;DHT22;7379;51.506;11.876;2023-02-28T03:24:33;2.50;67.50
14585;DHT22;7379;51.506;11.876;2023-02-28T03:27:06;2.50;67.50
14585;DHT22;7379;51.506;11.876;2023-02-28T03:29:35;2.50;67.50
14585;DHT22;7379;51.506;11.876;2023-02-28T03:32:08;2.50;67.50
14585;DHT22;7379;51.506;11.876;2023-02-28T03:34:42;2.50;67.50
14585;DHT22;7379;51.506;11.876;2023-02-28T03:37:17;2.50;67.50
14585;DHT22;7379;51.506;11.876;2023-02-28T03:39:47;2.40;67.40
14585;DHT22;7379;51.506;11.876;2023-02-28T03:42:19;2.50;68.30
14585;DHT22;7379;51.506;11.876;2023-02-28T03:44:51;2.40;67.50
14585;DHT22;7379;51.506;11.876;2023-02-28T03:47:22;2.40;67.60
14585;DHT22;7379;51.506;11.876;2023-02-28T03:49:53;2.40;67.50
14585;DHT22;7379;51.506;11.876;2023-02-28T03:52:26;2.40;67.50
14585;DHT22;7379;51.506;11.876;2023-02-28T03:54:55;2.50;67.60
14585;DHT22;7379;51.506;11.876;2023-02-28T03:57:27;2.40;67.50
14585;DHT22;7379;51.506;11.876;2023-02-28T04:00:02;2.50;67.60
14585;DHT22;7379;51.506;11.876;2023-02-28T04:02:31;2.40;67.50
14585;DHT22;7379;51.506;11.876;2023-02-28T04:04:59;2.40;67.50
14585;DHT22;7379;51.506;11.876;2023-02-28T04:07:30;2.40;67.50
14585;DHT22;7379;51.506;11.876;2023-02-28T04:09:58;2.40;67.60
14585;DHT22;7379;51.506;11.876;2023-02-28T04:12:25;2.40;67.50
14585;DHT22;7379;51.506;11.876;2023-02-28T04:14:52;2.40;67.60
14585;DHT22;7379;51.506;11.876;2023-02-28T04:17:18;2.40;67.60
14585;DHT22;7379;51.506;11.876;2023-02-28T04:19:45;2.40;67.60
14585;DHT22;7379;51.506;11.876;2023-02-28T04:22:12;2.40;67.60
14585;DHT22;7379;51.506;11.876;2023-02-28T04:24:41;2.40;68.40
14585;DHT22;7379;51.506;11.876;2023-02-28T04:27:08;2.40;67.60
14585;DHT22;7379;51.506;11.876;2023-02-28T04:29:36;2.40;67.60
14585;DHT22;7379;51.506;11.876;2023-02-28T04:32:03;2.40;67.60
14585;DHT22;7379;51.506;11.876;2023-02-28T04:34:31;2.40;67.60
14585;DHT22;7379;51.506;11.876;2023-02-28T04:36:58;2.40;67.60
14585;DHT22;7379;51.506;11.876;2023-02-28T04:39:26;2.40;67.60
14585;DHT22;7379;51.506;11.876;2023-02-28T04:41:54;2.40;67.60
14585;DHT22;7379;51.506;11.876;2023-02-28T04:44:21;2.40;67.60
14585;DHT22;7379;51.506;11.876;2023-02-28T04:46:48;2.40;67.60
14585;DHT22;7379;51.506;11.876;2023-02-28T04:49:15;2.40;67.60
14585;DHT22;7379;51.506;11.876;2023-02-28T04:51:42;2.40;67.60
14585;DHT22;7379;51.506;11.876;2023-02-28T04:54:09;2.40;67.60
14585;DHT22;7379;51.506;11.876;2023-02-28T04:56:36;2.40;67.60
14585;DHT22;7379;51.506;11.876;2023-02-28T04:59:04;2.40;68.40
14585;DHT22;7379;51.506;11.876;2023-02-28T05:01:33;2.40;67.60
14585;DHT22;7379;51.506;11.876;2023-02-28T05:04:02;2.40;67.60
14585;DHT22;7379;51.506;11.876;2023-02-28T05:06:31;2.40;67.60
14585;DHT22;7379;51.506;11.876;2023-02-28T05:08:58;2.40;67.60
14585;DHT22;7379;51.506;11.876;2023-02-28T05:11:26;2.30;67.50
14585;DHT22;7379;51.506;11.876;2023-02-28T05:13:54;2.30;67.50
14585;DHT22;7379;51.506;11.876;2023-02-28T05:16:23;2.30;67.50
14585;DHT22;7379;51.506;11.876;2023-02-28T05:18:50;2.30;67.50
14585;DHT22;7379;51.506;11.876;2023-02-28T05:21:24;2.30;67.40
14585;DHT22;7379;51.506;11.876;2023-02-28T05:23:52;2.30;67.40
14585;DHT22;7379;51.506;11.876;2023-02-28T05:26:19;2.30;67.50
14585;DHT22;7379;51.506;11.876;2023-02-28T05:28:45;2.30;67.40
14585;DHT22;7379;51.506;11.876;2023-02-28T05:31:13;2.30;67.40
14585;DHT22;7379;51.506;11.876;2023-02-28T05:33:41;2.30;67.40
14585;DHT22;7379;51.506;11.876;2023-02-28T05:36:08;2.30;67.40
14585;DHT22;7379;51.506;11.876;2023-02-28T05:38:35;2.30;67.40
14585;DHT22;7379;51.506;11.876;2023-02-28T05:41:05;2.30;67.40
14585;DHT22;7379;51.506;11.876;2023-02-28T05:43:32;2.30;67.40
14585;DHT22;7379;51.506;11.876;2023-02-28T05:46:01;2.30;67.40
14585;DHT22;7379;51.506;11.876;2023-02-28T05:48:28;2.20;67.30
14585;DHT22;7379;51.506;11.876;2023-02-28T05:50:57;2.20;67.30
14585;DHT22;7379;51.506;11.876;2023-02-28T05:53:24;2.20;67.30
14585;DHT22;7379;51.506;11.876;2023-02-28T05:55:51;2.20;67.30
14585;DHT22;7379;51.506;11.876;2023-02-28T05:58:18;2.20;67.30
14585;DHT22;7379;51.506;11.876;2023-02-28T06:00:45;2.20;67.30
14585;DHT22;7379;51.506;11.876;2023-02-28T06:03:12;2.20;67.30
14585;DHT22;7379;51.506;11.876;2023-02-28T06:05:38;2.20;67.30
14585;DHT22;7379;51.506;11.876;2023-02-28T06:08:07;2.20;67.30
14585;DHT22;7379;51.506;11.876;2023-02-28T06:10:34;2.20;68.00
14585;DHT22;7379;51.506;11.876;2023-02-28T06:13:01;2.20;67.20
14585;DHT22;7379;51.506;11.876;2023-02-28T06:15:29;2.20;67.20
14585;DHT22;7379;51.506;11.876;2023-02-28T06:17:56;2.20;67.20
14585;DHT22;7379;51.506;11.876;2023-02-28T06:20:24;2.20;67.20
14585;DHT22;7379;51.506;11.876;2023-02-28T06:22:51;2.20;67.20
14585;DHT22;7379;51.506;11.876;2023-02-28T06:25:21;2.20;67.20
14585;DHT22;7379;51.506;11.876;2023-02-28T06:27:48;2.20;67.30
14585;DHT22;7379;51.506;11.876;2023-02-28T06:30:15;2.10;67.10
14585;DHT22;7379;51.506;11.876;2023-02-28T06:32:42;2.10;67.20
14585;DHT22;7379;51.506;11.876;2023-02-28T06:35:08;2.10;67.10
14585;DHT22;7379;51.506;11.876;2023-02-28T06:37:36;2.10;67.10
14585;DHT22;7379;51.506;11.876;2023-02-28T06:40:03;2.10;67.10
14585;DHT22;7379;51.506;11.876;2023-02-28T06:42:34;2.10;67.20
14585;DHT22;7379;51.506;11.876;2023-02-28T06:45:02;2.10;67.20
14585;DHT22;7379;51.506;11.876;2023-02-28T06:47:35;2.10;67.20
14585;DHT22;7379;51.506;11.876;2023-02-28T06:50:02;2.10;67.20
14585;DHT22;7379;51.506;11.876;2023-02-28T06:52:30;2.10;67.20
14585;DHT22;7379;51.506;11.876;2023-02-28T06:54:56;2.10;67.20
14585;DHT22;7379;51.506;11.876;2023-02-28T06:57:27;2.10;67.20
14585;DHT22;7379;51.506;11.876;2023-02-28T06:59:58;2.10;67.20
14585;DHT22;7379;51.506;11.876;2023-02-28T07:02:25;2.10;67.20
14585;DHT22;7379;51.506;11.876;2023-02-28T07:04:52;2.10;67.20
14585;DHT22;7379;51.506;11.876;2023-02-28T07:07:18;2.10;67.20
14585;DHT22;7379;51.506;11.876;2023-02-28T07:09:45;2.10;67.20
14585;DHT22;7379;51.506;11.876;2023-02-28T07:12:12;2.00;67.10
14585;DHT22;7379;51.506;11.876;2023-02-28T07:14:39;2.00;67.10
14585;DHT22;7379;51.506;11.876;2023-02-28T07:17:08;2.10;67.20
14585;DHT22;7379;51.506;11.876;2023-02-28T07:19:37;2.00;67.10
14585;DHT22;7379;51.506;11.876;2023-02-28T07:22:04;2.00;67.10
14585;DHT22;7379;51.506;11.876;2023-02-28T07:24:31;2.10;67.30
14585;DHT22;7379;51.506;11.876;2023-02-28T07:26:58;2.00;67.20
14585;DHT22;7379;51.506;11.876;2023-02-28T07:29:26;2.00;67.20
14585;DHT22;7379;51.506;11.876;2023-02-28T07:31:53;2.00;67.20
14585;DHT22;7379;51.506;11.876;2023-02-28T07:34:21;2.00;67.20
14585;DHT22;7379;51.506;11.876;2023-02-28T07:36:48;2.00;67.20
14585;DHT22;7379;51.506;11.876;2023-02-28T07:39:19;2.00;67.20
14585;DHT22;7379;51.506;11.876;2023-02-28T07:41:46;2.00;67.20
14585;DHT22;7379;51.506;11.876;2023-02-28T07:44:13;2.00;67.20
14585;DHT22;7379;51.506;11.876;2023-02-28T07:46:40;2.00;67.10
14585;DHT22;7379;51.506;11.876;2023-02-28T07:49:07;2.10;67.10
14585;DHT22;7379;51.506;11.876;2023-02-28T07:51:35;2.10;67.00
14585;DHT22;7379;51.506;11.876;2023-02-28T07:54:02;2.10;66.80
14585;DHT22;7379;51.506;11.876;2023-02-28T07:56:29;2.10;66.60
14585;DHT22;7379;51.506;11.876;2023-02-28T07:58:55;2.20;66.50
14585;DHT22;7379;51.506;11.876;2023-02-28T08:01:22;2.20;66.40
14585;DHT22;7379;51.506;11.876;2023-02-28T08:03:49;2.20;66.30
14585;DHT22;7379;51.506;11.876;2023-02-28T08:06:18;2.30;66.30
14585;DHT22;7379;51.506;11.876;2023-02-28T08:08:46;2.30;66.20
14585;DHT22;7379;51.506;11.876;2023-02-28T08:11:13;2.30;66.20
14585;DHT22;7379;51.506;11.876;2023-02-28T08:13:41;2.30;66.10
14585;DHT22;7379;51.506;11.876;2023-02-28T08:16:10;2.30;66.00
14585;DHT22;7379;51.506;11.876;2023-02-28T08:18:37;2.40;66.10
14585;DHT22;7379;51.506;11.876;2023-02-28T08:21:06;2.40;66.00
14585;DHT22;7379;51.506;11.876;2023-02-28T08:23:33;2.40;65.90
14585;DHT22;7379;51.506;11.876;2023-02-28T08:26:02;2.40;65.90
14585;DHT22;7379;51.506;11.876;2023-02-28T08:28:29;2.40;65.90
14585;DHT22;7379;51.506;11.876;2023-02-28T08:30:56;2.40;65.80
14585;DHT22;7379;51.506;11.876;2023-02-28T08:33:24;2.40;65.60
14585;DHT22;7379;51.506;11.876;2023-02-28T08:35:53;2.40;65.60
14585;DHT22;7379;51.506;11.876;2023-02-28T08:38:20;2.40;65.60
14585;DHT22;7379;51.506;11.876;2023-02-28T08:40:47;2.40;65.50
14585;DHT22;7379;51.506;11.876;2023-02-28T08:43:15;2.40;65.60
14585;DHT22;7379;51.506;11.876;2023-02-28T08:45:42;2.40;65.60
14585;DHT22;7379;51.506;11.876;2023-02-28T08:48:09;2.40;65.50
14585;DHT22;7379;51.506;11.876;2023-02-28T08:50:36;2.40;65.50
14585;DHT22;7379;51.506;11.876;2023-02-28T08:53:03;2.40;65.40
14585;DHT22;7379;51.506;11.876;2023-02-28T08:55:30;2.40;65.30
14585;DHT22;7379;51.506;11.876;2023-02-28T08:57:56;2.30;65.20
14585;DHT22;7379;51.506;11.876;2023-02-28T09:00:25;2.30;66.00
14585;DHT22;7379;51.506;11.876;2023-02-28T09:02:52;2.30;65.20
14585;DHT22;7379;51.506;11.876;2023-02-28T09:05:20;2.30;65.10
14585;DHT22;7379;51.506;11.876;2023-02-28T09:07:46;2.30;65.20
14585;DHT22;7379;51.506;11.876;2023-02-28T09:10:13;2.30;65.10
14585;DHT22;7379;51.506;11.876;2023-02-28T09:12:40;2.30;64.80
14585;DHT22;7379;51.506;11.876;2023-02-28T09:15:08;2.30;64.70
14585;DHT22;7379;51.506;11.876;2023-02-28T09:17:36;2.30;64.50
14585;DHT22;7379;51.506;11.876;2023-02-28T09:20:03;2.30;64.50
14585;DHT22;7379;51.506;11.876;2023-02-28T09:22:30;2.30;64.30
14585;DHT22;7379;51.506;11.876;2023-02-28T09:24:58;2.30;64.20
14585;DHT22;7379;51.506;11.876;2023-02-28T09:27:24;2.30;64.70
14585;DHT22;7379;51.506;11.876;2023-02-28T09:29:51;2.30;63.90
14585;DHT22;7379;51.506;11.876;2023-02-28T09:32:18;2.30;63.80
14585;DHT22;7379;51.506;11.876;2023-02-28T09:34:46;2.30;63.80
14585;DHT22;7379;51.506;11.876;2023-02-28T09:37:13;2.30;63.80
14585;DHT22;7379;51.506;11.876;2023-02-28T09:39:40;2.30;63.70
14585;DHT22;7379;51.506;11.876;2023-02-28T09:42:17;2.30;63.80
14585;DHT22;7379;51.506;11.876;2023-02-28T09:44:46;2.30;63.70
14585;DHT22;7379;51.506;11.876;2023-02-28T09:47:28;2.30;63.40
14585;DHT22;7379;51.506;11.876;2023-02-28T09:49:59;2.30;63.30
14585;DHT22;7379;51.506;11.876;2023-02-28T09:52:30;2.30;63.40
14585;DHT22;7379;51.506;11.876;2023-02-28T09:55:01;2.30;63.30
14585;DHT22;7379;51.506;11.876;2023-02-28T09:57:42;2.30;63.30
14585;DHT22;7379;51.506;11.876;2023-02-28T10:00:14;2.40;62.90
14585;DHT22;7379;51.506;11.876;2023-02-28T10:03:04;2.40;62.60
14585;DHT22;7379;51.506;11.876;2023-02-28T10:05:37;2.40;62.40
14585;DHT22;7379;51.506;11.876;2023-02-28T10:08:10;2.40;62.10
14585;DHT22;7379;51.506;11.876;2023-02-28T10:10:40;2.40;61.90
14585;DHT22;7379;51.506;11.876;2023-02-28T10:13:16;2.40;61.70
14585;DHT22;7379;51.506;11.876;2023-02-28T10:15:46;2.40;61.50
14585;DHT22;7379;51.506;11.876;2023-02-28T10:18:18;2.40;61.30
14585;DHT22;7379;51.506;11.876;2023-02-28T10:20:49;2.40;61.40
14585;DHT22;7379;51.506;11.876;2023-02-28T10:23:20;2.40;61.40
14585;DHT22;7379;51.506;11.876;2023-02-28T10:25:54;2.40;61.20
14585;DHT22;7379;51.506;11.876;2023-02-28T10:28:21;2.40;61.20
14585;DHT22;7379;51.506;11.876;2023-02-28T10:30:50;2.40;61.00
14585;DHT22;7379;51.506;11.876;2023-02-28T10:33:21;2.40;60.90
14585;DHT22;7379;51.506;11.876;2023-02-28T10:35:50;2.50;60.80
14585;DHT22;7379;51.506;11.876;2023-02-28T10:38:19;2.50;60.50
14585;DHT22;7379;51.506;11.876;2023-02-28T10:40:47;2.50;60.70
14585;DHT22;7379;51.506;11.876;2023-02-28T10:43:23;2.50;60.50
14585;DHT22;7379;51.506;11.876;2023-02-28T10:45:57;2.50;60.50
14585;DHT22;7379;51.506;11.876;2023-02-28T10:48:30;2.50;60.40
14585;DHT22;7379;51.506;11.876;2023-02-28T10:50:58;2.50;60.40
14585;DHT22;7379;51.506;11.876;2023-02-28T10:53:32;2.50;60.30
14585;DHT22;7379;51.506;11.876;2023-02-28T10:56:01;2.50;60.20
14585;DHT22;7379;51.506;11.876;2023-02-28T10:58:30;2.50;60.10
14585;DHT22;7379;51.506;11.876;2023-02-28T11:00:58;2.50;60.00
14585;DHT22;7379;51.506;11.876;2023-02-28T11:03:31;2.50;60.00
14585;DHT22;7379;51.506;11.876;2023-02-28T11:06:05;2.50;60.00
14585;DHT22;7379;51.506;11.876;2023-02-28T11:08:33;2.60;59.80
14585;DHT22;7379;51.506;11.876;2023-02-28T11:11:04;2.60;60.00
14585;DHT22;7379;51.506;11.876;2023-02-28T11:13:33;2.60;60.00
14585;DHT22;7379;51.506;11.876;2023-02-28T11:16:04;2.60;60.10
14585;DHT22;7379;51.506;11.876;2023-02-28T11:18:38;2.60;59.80
14585;DHT22;7379;51.506;11.876;2023-02-28T11:21:09;2.60;60.10
14585;DHT22;7379;51.506;11.876;2023-02-28T11:23:40;2.60;60.20
14585;DHT22;7379;51.506;11.876;2023-02-28T11:26:07;2.60;60.00
14585;DHT22;7379;51.506;11.876;2023-02-28T11:28:38;2.70;60.10
14585;DHT22;7379;51.506;11.876;2023-02-28T11:31:15;2.70;59.60
14585;DHT22;7379;51.506;11.876;2023-02-28T11:33:46;2.70;60.00
14585;DHT22;7379;51.506;11.876;2023-02-28T11:36:18;2.70;59.90
14585;DHT22;7379;51.506;11.876;2023-02-28T11:38:46;2.70;59.60
14585;DHT22;7379;51.506;11.876;2023-02-28T11:41:34;2.70;59.80
14585;DHT22;7379;51.506;11.876;2023-02-28T11:44:15;2.70;59.90
14585;DHT22;7379;51.506;11.876;2023-02-28T11:46:48;2.70;59.80
14585;DHT22;7379;51.506;11.876;2023-02-28T11:49:31;2.70;59.60
14585;DHT22;7379;51.506;11.876;2023-02-28T11:52:08;2.70;59.60
14585;DHT22;7379;51.506;11.876;2023-02-28T11:54:52;2.80;59.70
14585;DHT22;7379;51.506;11.876;2023-02-28T12:00:29;2.80;59.60
14585;DHT22;7379;51.506;11.876;2023-02-28T12:03:03;2.80;59.50
14585;DHT22;7379;51.506;11.876;2023-02-28T12:05:40;2.90;59.60
14585;DHT22;7379;51.506;11.876;2023-02-28T12:08:22;2.90;59.20
14585;DHT22;7379;51.506;11.876;2023-02-28T12:10:59;3.00;59.20
14585;DHT22;7379;51.506;11.876;2023-02-28T12:13:37;3.00;59.60
14585;DHT22;7379;51.506;11.876;2023-02-28T12:16:20;2.90;59.60
14585;DHT22;7379;51.506;11.876;2023-02-28T12:19:02;2.90;59.60
14585;DHT22;7379;51.506;11.876;2023-02-28T12:21:40;3.00;59.40
14585;DHT22;7379;51.506;11.876;2023-02-28T12:24:36;2.90;59.40
14585;DHT22;7379;51.506;11.876;2023-02-28T12:27:09;3.00;59.20
14585;DHT22;7379;51.506;11.876;2023-02-28T12:29:43;3.00;58.90
14585;DHT22;7379;51.506;11.876;2023-02-28T12:32:14;3.00;58.70
14585;DHT22;7379;51.506;11.876;2023-02-28T12:34:46;3.00;58.80
14585;DHT22;7379;51.506;11.876;2023-02-28T12:37:19;3.00;58.90
14585;DHT22;7379;51.506;11.876;2023-02-28T12:39:54;3.00;58.90
14585;DHT22;7379;51.506;11.876;2023-02-28T12:42:27;3.10;59.00
14585;DHT22;7379;51.506;11.876;2023-02-28T12:44:59;3.10;58.80
14585;DHT22;7379;51.506;11.876;2023-02-28T12:47:26;3.20;58.80
14585;DHT22;7379;51.506;11.876;2023-02-28T12:49:56;3.20;58.60
14585;DHT22;7379;51.506;11.876;2023-02-28T12:52:30;3.20;58.60
14585;DHT22;7379;51.506;11.876;2023-02-28T12:55:03;3.20;58.90
14585;DHT22;7379;51.506;11.876;2023-02-28T12:57:37;3.30;58.60
14585;DHT22;7379;51.506;11.876;2023-02-28T13:00:11;3.30;58.30
14585;DHT22;7379;51.506;11.876;2023-02-28T13:03:12;3.30;58.20
14585;DHT22;7379;51.506;11.876;2023-02-28T13:05:56;3.40;58.60
14585;DHT22;7379;51.506;11.876;2023-02-28T13:08:59;3.40;58.60
14585;DHT22;7379;51.506;11.876;2023-02-28T13:11:31;3.40;58.40
14585;DHT22;7379;51.506;11.876;2023-02-28T13:14:01;3.50;58.30
14585;DHT22;7379;51.506;11.876;2023-02-28T13:16:50;3.50;58.50
14585;DHT22;7379;51.506;11.876;2023-02-28T13:19:19;3.50;58.30
14585;DHT22;7379;51.506;11.876;2023-02-28T13:21:47;3.50;58.60
14585;DHT22;7379;51.506;11.876;2023-02-28T13:24:38;3.60;58.40
14585;DHT22;7379;51.506;11.876;2023-02-28T13:27:23;3.60;58.10
14585;DHT22;7379;51.506;11.876;2023-02-28T13:29:51;3.70;58.00
14585;DHT22;7379;51.506;11.876;2023-02-28T13:32:31;3.70;58.10
14585;DHT22;7379;51.506;11.876;2023-02-28T13:38:25;3.70;58.10
14585;DHT22;7379;51.506;11.876;2023-02-28T13:44:07;3.60;58.30
14585;DHT22;7379;51.506;11.876;2023-02-28T13:46:37;3.60;58.40
14585;DHT22;7379;51.506;11.876;2023-02-28T13:49:25;3.60;59.10
14585;DHT22;7379;51.506;11.876;2023-02-28T13:51:56;3.60;58.40
14585;DHT22;7379;51.506;11.876;2023-02-28T13:54:39;3.60;58.30
14585;DHT22;7379;51.506;11.876;2023-02-28T13:57:20;3.70;58.20
14585;DHT22;7379;51.506;11.876;2023-02-28T14:00:17;3.70;58.50
14585;DHT22;7379;51.506;11.876;2023-02-28T14:02:57;3.70;58.60
14585;DHT22;7379;51.506;11.876;2023-02-28T14:05:30;3.70;58.70
14585;DHT22;7379;51.506;11.876;2023-02-28T14:08:04;3.70;58.60
14585;DHT22;7379;51.506;11.876;2023-02-28T14:10:32;3.80;58.30
14585;DHT22;7379;51.506;11.876;2023-02-28T14:13:12;3.80;58.40
14585;DHT22;7379;51.506;11.876;2023-02-28T14:15:46;3.80;58.10
14585;DHT22;7379;51.506;11.876;2023-02-28T14:18:19;3.80;58.30
14585;DHT22;7379;51.506;11.876;2023-02-28T14:20:48;3.80;58.00
14585;DHT22;7379;51.506;11.876;2023-02-28T14:23:24;3.90;58.30
14585;DHT22;7379;51.506;11.876;2023-02-28T14:26:00;4.00;58.20
14585;DHT22;7379;51.506;11.876;2023-02-28T14:28:45;4.00;58.00
14585;DHT22;7379;51.506;11.876;2023-02-28T14:31:22;4.10;57.90
14585;DHT22;7379;51.506;11.876;2023-02-28T14:34:03;4.10;57.60
14585;DHT22;7379;51.506;11.876;2023-02-28T14:36:33;4.20;57.50
14585;DHT22;7379;51.506;11.876;2023-02-28T14:39:05;4.20;57.60
14585;DHT22;7379;51.506;11.876;2023-02-28T14:41:35;4.20;57.80
14585;DHT22;7379;51.506;11.876;2023-02-28T14:44:13;4.20;57.90
14585;DHT22;7379;51.506;11.876;2023-02-28T14:46:43;4.20;58.30
14585;DHT22;7379;51.506;11.876;2023-02-28T14:49:16;4.30;58.20
14585;DHT22;7379;51.506;11.876;2023-02-28T14:51:44;4.30;57.80
14585;DHT22;7379;51.506;11.876;2023-02-28T14:54:15;4.40;57.50
14585;DHT22;7379;51.506;11.876;2023-02-28T14:56:42;4.30;57.80
14585;DHT22;7379;51.506;11.876;2023-02-28T14:59:25;4.40;57.30
14585;DHT22;7379;51.506;11.876;2023-02-28T15:02:17;4.40;57.80
14585;DHT22;7379;51.506;11.876;2023-02-28T15:04:52;4.40;57.60
14585;DHT22;7379;51.506;11.876;2023-02-28T15:07:19;4.40;57.90
14585;DHT22;7379;51.506;11.876;2023-02-28T15:10:07;4.40;57.80
14585;DHT22;7379;51.506;11.876;2023-02-28T15:12:35;4.50;57.70
14585;DHT22;7379;51.506;11.876;2023-02-28T15:15:02;4.40;57.60
14585;DHT22;7379;51.506;11.876;2023-02-28T15:17:31;4.40;57.90
14585;DHT22;7379;51.506;11.876;2023-02-28T15:19:58;4.50;57.40
14585;DHT22;7379;51.506;11.876;2023-02-28T15:22:29;4.60;57.50
14585;DHT22;7379;51.506;11.876;2023-02-28T15:24:57;4.60;58.10
14585;DHT22;7379;51.506;11.876;2023-02-28T15:27:27;4.60;57.30
14585;DHT22;7379;51.506;11.876;2023-02-28T15:29:57;4.60;57.50
14585;DHT22;7379;51.506;11.876;2023-02-28T15:32:27;4.50;57.70
14585;DHT22;7379;51.506;11.876;2023-02-28T15:34:56;4.50;57.90
14585;DHT22;7379;51.506;11.876;2023-02-28T15:37:29;4.50;58.10
14585;DHT22;7379;51.506;11.876;2023-02-28T15:39:58;4.40;58.20
14585;DHT22;7379;51.506;11.876;2023-02-28T15:42:30;4.40;57.90
14585;DHT22;7379;51.506;11.876;2023-02-28T15:44:57;4.30;57.70
14585;DHT22;7379;51.506;11.876;2023-02-28T15:47:27;4.30;57.80
14585;DHT22;7379;51.506;11.876;2023-02-28T15:49:56;4.30;58.10
14585;DHT22;7379;51.506;11.876;2023-02-28T15:52:38;4.30;58.20
14585;DHT22;7379;51.506;11.876;2023-02-28T15:55:11;4.20;58.30
14585;DHT22;7379;51.506;11.876;2023-02-28T15:57:39;4.20;59.10
14585;DHT22;7379;51.506;11.876;2023-02-28T16:00:11;4.20;59.30
14585;DHT22;7379;51.506;11.876;2023-02-28T16:02:39;4.20;59.60
14585;DHT22;7379;51.506;11.876;2023-02-28T16:05:23;4.20;59.60
14585;DHT22;7379;51.506;11.876;2023-02-28T16:07:54;4.20;59.80
14585;DHT22;7379;51.506;11.876;2023-02-28T16:10:21;4.10;59.70
14585;DHT22;7379;51.506;11.876;2023-02-28T16:12:52;4.10;59.80
14585;DHT22;7379;51.506;11.876;2023-02-28T16:15:22;4.10;60.00
14585;DHT22;7379;51.506;11.876;2023-02-28T16:17:50;4.10;60.70
14585;DHT22;7379;51.506;11.876;2023-02-28T16:20:23;4.10;60.10
14585;DHT22;7379;51.506;11.876;2023-02-28T16:22:50;4.10;60.20
14585;DHT22;7379;51.506;11.876;2023-02-28T16:25:18;4.10;60.10